Terminal Aerodrome Forecast
Issued by NWS

Home | Current Version | Previous Version | Text Only | Print | Product List | Glossary On
Versions: 1 2 3 4 5 6 7 8 9 10 11 12 13
380
FTUS45 KABQ 281738
TAFROW
TAF
KROW 281738Z 2818/2918 04010KT P6SM SKC
     FM290100 08006KT P6SM FEW100
     FM291000 16009KT P6SM SCT130=

USA.gov is the U.S. government's official web portal to all federal, state and local government web resources and services.